| time (UTC) | temp C | wind direction | speed KPH | gust KPH | rain 1hr cm | rain 24hr cm | rain mn cm | humidity % | barometer mb |
| 20260505200003 | 26 | 53 | 1.6 | 6.4 | 0.00 | 0.00 | 0.00 | 38 | 1013.7 |
| 20260505195503 | 26 | 68 | 3.2 | 9.7 | 0.00 | 0.00 | 0.00 | 38 | 1013.8 |
| 20260505195024 | 26 | 45 | 3.2 | 12.9 | 0.00 | 0.00 | 0.00 | 38 | 1014.0 |
| 20260505194503 | 26 | 19 | 4.8 | 14.5 | 0.00 | 0.00 | 0.00 | 37 | 1014.1 |
| 20260505194003 | 26 | 81 | 3.2 | 14.5 | 0.00 | 0.00 | 0.00 | 37 | 1014.2 |
| 20260505193503 | 27 | 88 | 3.2 | 16.1 | 0.00 | 0.00 | 0.00 | 35 | 1014.2 |
| 20260505193003 | 27 | 33 | 3.2 | 16.1 | 0.00 | 0.00 | 0.00 | 37 | 1014.3 |
| 20260505192503 | 27 | 27 | 4.8 | 12.9 | 0.00 | 0.00 | 0.00 | 37 | 1014.3 |
| 20260505192003 | 27 | 29 | 4.8 | 14.5 | 0.00 | 0.00 | 0.00 | 35 | 1014.4 |
| 20260505191503 | 27 | 26 | 4.8 | 14.5 | 0.00 | 0.00 | 0.00 | 36 | 1014.5 |
| 20260505191003 | 27 | 30 | 3.2 | 9.7 | 0.00 | 0.00 | 0.00 | 34 | 1014.5 |
| 20260505190503 | 27 | 67 | 1.6 | 9.7 | 0.00 | 0.00 | 0.00 | 37 | 1014.4 |
| 20260505190004 | 27 | 60 | 3.2 | 11.3 | 0.00 | 0.00 | 0.00 | 37 | 1014.4 |
| 20260505185503 | 27 | 49 | 3.2 | 11.3 | 0.00 | 0.00 | 0.00 | 37 | 1014.6 |
| 20260505185003 | 27 | 23 | 3.2 | 9.7 | 0.00 | 0.00 | 0.00 | 36 | 1014.6 |
| 20260505184524 | 27 | 48 | 3.2 | 8.0 | 0.00 | 0.00 | 0.00 | 38 | 1014.6 |
| 20260505184003 | 27 | 36 | 3.2 | 9.7 | 0.00 | 0.00 | 0.00 | 36 | 1014.7 |
| 20260505183503 | 27 | 355 | 3.2 | 9.7 | 0.00 | 0.00 | 0.00 | 36 | 1014.7 |
| 20260505183003 | 27 | 11 | 3.2 | 16.1 | 0.00 | 0.00 | 0.00 | 37 | 1014.7 |
| 20260505182524 | 27 | 72 | 3.2 | 16.1 | 0.00 | 0.00 | 0.00 | 37 | 1014.7 |
| 20260505182024 | 27 | 63 | 1.6 | 11.3 | 0.00 | 0.00 | 0.00 | 38 | 1014.9 |
| 20260505181503 | 26 | 110 | 1.6 | 11.3 | 0.00 | 0.00 | 0.00 | 34 | 1015.1 |
| 20260505181003 | 26 | 128 | 3.2 | 17.7 | 0.00 | 0.00 | 0.00 | 39 | 1015.2 |
| 20260505180524 | 26 | 47 | 3.2 | 17.7 | 0.00 | 0.00 | 0.00 | 39 | 1015.4 |
| 20260505180003 | 26 | 345 | 3.2 | 17.7 | 0.00 | 0.00 | 0.00 | 38 | 1015.6 |
| 20260505175503 | 26 | 21 | 3.2 | 17.7 | 0.00 | 0.00 | 0.00 | 38 | 1015.7 |
| 20260505175003 | 27 | 36 | 3.2 | 11.3 | 0.00 | 0.00 | 0.00 | 35 | 1015.6 |
| 20260505174524 | 26 | 68 | 3.2 | 11.3 | 0.00 | 0.00 | 0.00 | 35 | 1015.7 |
| 20260505174003 | 26 | 80 | 3.2 | 11.3 | 0.00 | 0.00 | 0.00 | 37 | 1015.7 |
| 20260505173503 | 26 | 30 | 4.8 | 16.1 | 0.00 | 0.00 | 0.00 | 36 | 1015.8 |
| 20260505173003 | 26 | 24 | 4.8 | 16.1 | 0.00 | 0.00 | 0.00 | 38 | 1015.8 |
| 20260505172503 | 26 | 64 | 1.6 | 12.9 | 0.00 | 0.00 | 0.00 | 38 | 1015.7 |
| 20260505172003 | 26 | 122 | 1.6 | 8.0 | 0.00 | 0.00 | 0.00 | 41 | 1015.6 |
| 20260505171503 | 26 | 74 | 3.2 | 14.5 | 0.00 | 0.00 | 0.00 | 38 | 1015.5 |
| 20260505171003 | 26 | 29 | 3.2 | 14.5 | 0.00 | 0.00 | 0.00 | 37 | 1015.5 |
| 20260505170503 | 26 | 39 | 3.2 | 12.9 | 0.00 | 0.00 | 0.00 | 40 | 1015.5 |
| 20260505170003 | 26 | 52 | 3.2 | 9.7 | 0.00 | 0.00 | 0.00 | 39 | 1015.6 |
| 20260505165503 | 26 | 55 | 3.2 | 9.7 | 0.00 | 0.00 | 0.00 | 38 | 1015.7 |
| 20260505165003 | 26 | 23 | 4.8 | 12.9 | 0.00 | 0.00 | 0.00 | 39 | 1015.7 |
| 20260505164524 | 26 | 9 | 4.8 | 12.9 | 0.00 | 0.00 | 0.00 | 40 | 1015.7 |
| 20260505164003 | 25 | 65 | 1.6 | 9.7 | 0.00 | 0.00 | 0.00 | 43 | 1015.9 |
| 20260505163503 | 25 | 62 | 1.6 | 8.0 | 0.00 | 0.00 | 0.00 | 41 | 1015.9 |
| 20260505163003 | 25 | 36 | 3.2 | 9.7 | 0.00 | 0.00 | 0.00 | 45 | 1015.9 |
| 20260505162503 | 25 | 38 | 3.2 | 9.7 | 0.00 | 0.00 | 0.00 | 45 | 1015.9 |
| 20260505162003 | 25 | 75 | 3.2 | 8.0 | 0.00 | 0.00 | 0.00 | 44 | 1016.1 |
| 20260505161503 | 25 | 72 | 1.6 | 6.4 | 0.00 | 0.00 | 0.00 | 48 | 1016.1 |
| 20260505161024 | 25 | 56 | 1.6 | 8.0 | 0.00 | 0.00 | 0.00 | 46 | 1016.1 |
| 20260505160524 | 25 | 40 | 3.2 | 11.3 | 0.00 | 0.00 | 0.00 | 48 | 1016.4 |
| 20260505153003 | 24 | 33 | 1.6 | 9.7 | 0.00 | 0.00 | 0.00 | 52 | 1016.4 |
| 20260505152503 | 23 | 13 | 3.2 | 9.7 | 0.00 | 0.00 | 0.00 | 52 | 1016.5 |
| 20260505152003 | 23 | 14 | 3.2 | 8.0 | 0.00 | 0.00 | 0.00 | 53 | 1016.7 |
| 20260505151503 | 23 | 62 | 1.6 | 4.8 | 0.00 | 0.00 | 0.00 | 54 | 1016.6 |
| 20260505151003 | 23 | 133 | 1.6 | 4.8 | 0.00 | 0.00 | 0.00 | 55 | 1016.6 |
| 20260505150503 | 23 | 3 | 1.6 | 8.0 | 0.00 | 0.00 | 0.00 | 57 | 1016.6 |
| 20260505140503 | 18 | 19 | 1.6 | 8.0 | 0.00 | 0.00 | 0.00 | 71 | 1016.3 |
| 20260505125003 | 15 | 14 | 1.6 | 12.9 | 0.00 | 0.00 | 0.00 | 86 | 1015.8 |
| 20260505124503 | 14 | 22 | 1.6 | 6.4 | 0.00 | 0.00 | 0.00 | 87 | 1015.9 |
| 20260505124024 | 14 | 60 | 1.6 | 6.4 | 0.00 | 0.00 | 0.00 | 88 | 1015.9 |
| 20260505123503 | 13 | 47 | 1.6 | 8.0 | 0.00 | 0.00 | 0.00 | 89 | 1016.1 |
| 20260505123003 | 13 | 9 | 1.6 | 8.0 | 0.00 | 0.00 | 0.00 | 91 | 1016.0 |
| 20260505122524 | 12 | 22 | 0.0 | 3.2 | 0.00 | 0.00 | 0.00 | 93 | 1016.0 |
| 20260505122003 | 12 | 99 | 0.0 | 6.4 | 0.00 | 0.00 | 0.00 | 94 | 1015.8 |
| 20260505121503 | 11 | 117 | 0.0 | 6.4 | 0.00 | 0.00 | 0.00 | 94 | 1015.8 |
| 20260505121003 | 11 | 112 | 0.0 | 1.6 | 0.00 | 0.00 | 0.00 | 94 | 1015.8 |
| 20260505120503 | 11 | 112 | 0.0 | 1.6 | 0.00 | 0.00 | 0.00 | 94 | 1015.7 |
| 20260505120004 | 10 | 0 | 0.0 | 0.0 | 0.00 | 0.00 | 0.00 | 94 | 1015.5 |
| 20260505115503 | 10 | 0 | 0.0 | 0.0 | 0.00 | 0.00 | 0.00 | 94 | 1015.4 |
| 20260505115024 | 10 | 0 | 0.0 | 0.0 | 0.00 | 0.00 | 0.00 | 94 | 1015.4 |
| 20260505114503 | 10 | 111 | 0.0 | 1.6 | 0.00 | 0.00 | 0.00 | 94 | 1015.3 |
| 20260505114003 | 10 | 111 | 0.0 | 1.6 | 0.00 | 0.00 | 0.00 | 94 | 1015.4 |
| 20260505113524 | 10 | 0 | 0.0 | 0.0 | 0.00 | 0.00 | 0.00 | 94 | 1015.5 |
| 20260505113003 | 9 | 112 | 0.0 | 1.6 | 0.00 | 0.00 | 0.00 | 94 | 1015.5 |
| 20260505112503 | 9 | 112 | 0.0 | 1.6 | 0.00 | 0.00 | 0.00 | 94 | 1015.6 |
| 20260505112024 | 9 | 0 | 0.0 | 0.0 | 0.00 | 0.00 | 0.00 | 94 | 1015.6 |
| 20260505111503 | 9 | 0 | 0.0 | 0.0 | 0.00 | 0.00 | 0.00 | 93 | 1015.5 |
| 20260505111003 | 9 | 0 | 0.0 | 0.0 | 0.00 | 0.00 | 0.00 | 93 | 1015.5 |
| 20260505110503 | 9 | 0 | 0.0 | 0.0 | 0.00 | 0.00 | 0.00 | 93 | 1015.4 |
| 20260505102003 | 10 | 0 | 0.0 | 0.0 | 0.00 | 0.00 | 0.00 | 92 | 1015.3 |
| 20260505101503 | 10 | 0 | 0.0 | 0.0 | 0.00 | 0.00 | 0.00 | 92 | 1015.4 |
| 20260505101003 | 10 | 0 | 0.0 | 0.0 | 0.00 | 0.00 | 0.00 | 92 | 1015.3 |
| 20260505100524 | 10 | 0 | 0.0 | 0.0 | 0.00 | 0.00 | 0.00 | 91 | 1015.3 |
| 20260505100003 | 10 | 0 | 0.0 | 0.0 | 0.00 | 0.00 | 0.00 | 91 | 1015.2 |
| 20260505095503 | 10 | 112 | 0.0 | 1.6 | 0.00 | 0.00 | 0.00 | 91 | 1015.3 |
| 20260505095024 | 10 | 112 | 0.0 | 1.6 | 0.00 | 0.00 | 0.00 | 92 | 1015.3 |
| 20260505094503 | 10 | 0 | 0.0 | 0.0 | 0.00 | 0.00 | 0.00 | 91 | 1015.2 |
| 20260505094024 | 10 | 0 | 0.0 | 0.0 | 0.00 | 0.00 | 0.00 | 91 | 1015.1 |
| 20260505093503 | 10 | 0 | 0.0 | 0.0 | 0.00 | 0.00 | 0.00 | 91 | 1015.1 |
| 20260505093003 | 10 | 0 | 0.0 | 0.0 | 0.00 | 0.00 | 0.00 | 91 | 1015.2 |
| 20260505092503 | 10 | 112 | 0.0 | 1.6 | 0.00 | 0.00 | 0.00 | 90 | 1015.1 |
| 20260505092003 | 10 | 112 | 0.0 | 1.6 | 0.00 | 0.00 | 0.00 | 90 | 1015.1 |
| 20260505091503 | 10 | 112 | 0.0 | 1.6 | 0.00 | 0.00 | 0.00 | 90 | 1015.1 |
| 20260505091003 | 10 | 112 | 0.0 | 1.6 | 0.00 | 0.00 | 0.00 | 90 | 1015.0 |
| 20260505090503 | 10 | 112 | 0.0 | 1.6 | 0.00 | 0.00 | 0.00 | 90 | 1014.9 |
| 20260505090003 | 10 | 112 | 0.0 | 1.6 | 0.00 | 0.00 | 0.00 | 90 | 1014.9 |
| 20260505085503 | 10 | 112 | 0.0 | 1.6 | 0.00 | 0.00 | 0.00 | 90 | 1014.9 |
| 20260505085003 | 10 | 0 | 0.0 | 0.0 | 0.00 | 0.00 | 0.00 | 89 | 1014.9 |
| 20260505084503 | 10 | 112 | 0.0 | 1.6 | 0.00 | 0.00 | 0.00 | 89 | 1014.9 |
| 20260505084003 | 10 | 111 | 0.0 | 1.6 | 0.00 | 0.00 | 0.00 | 89 | 1014.8 |
| 20260505083524 | 10 | 111 | 0.0 | 1.6 | 0.00 | 0.00 | 0.00 | 88 | 1014.7 |
| 20260505083003 | 10 | 0 | 0.0 | 0.0 | 0.00 | 0.00 | 0.00 | 88 | 1014.7 |
| 20260505082503 | 10 | 0 | 0.0 | 0.0 | 0.00 | 0.00 | 0.00 | 88 | 1014.8 |
| 20260505082003 | 10 | 0 | 0.0 | 0.0 | 0.00 | 0.00 | 0.00 | 87 | 1014.8 |
| 20260505081524 | 10 | 0 | 0.0 | 0.0 | 0.00 | 0.00 | 0.00 | 87 | 1014.9 |
| 20260505081003 | 10 | 0 | 0.0 | 0.0 | 0.00 | 0.00 | 0.00 | 87 | 1014.8 |
| 20260505080503 | 10 | 0 | 0.0 | 0.0 | 0.00 | 0.00 | 0.00 | 86 | 1014.7 |
| 20260505080003 | 11 | 0 | 0.0 | 0.0 | 0.00 | 0.00 | 0.00 | 86 | 1014.6 |
| 20260505075503 | 11 | 0 | 0.0 | 0.0 | 0.00 | 0.00 | 0.00 | 85 | 1014.6 |
| 20260505075003 | 11 | 0 | 0.0 | 0.0 | 0.00 | 0.00 | 0.00 | 85 | 1014.7 |
| 20260505074503 | 11 | 0 | 0.0 | 0.0 | 0.00 | 0.00 | 0.00 | 85 | 1014.6 |
| 20260505074003 | 11 | 0 | 0.0 | 0.0 | 0.00 | 0.00 | 0.00 | 84 | 1014.6 |
| 20260505073503 | 11 | 0 | 0.0 | 0.0 | 0.00 | 0.00 | 0.00 | 84 | 1014.6 |
| 20260505073003 | 11 | 0 | 0.0 | 0.0 | 0.00 | 0.00 | 0.00 | 84 | 1014.7 |
| 20260505072524 | 11 | 0 | 0.0 | 0.0 | 0.00 | 0.00 | 0.00 | 84 | 1014.7 |
| 20260505072003 | 11 | 0 | 0.0 | 0.0 | 0.00 | 0.00 | 0.00 | 84 | 1014.7 |
| 20260505071503 | 11 | 112 | 0.0 | 1.6 | 0.00 | 0.00 | 0.00 | 84 | 1014.7 |
| 20260505071003 | 11 | 112 | 0.0 | 1.6 | 0.00 | 0.00 | 0.00 | 84 | 1014.7 |
| 20260505070503 | 11 | 112 | 0.0 | 1.6 | 0.00 | 0.00 | 0.00 | 83 | 1014.6 |
| 20260505070024 | 11 | 112 | 0.0 | 1.6 | 0.00 | 0.00 | 0.00 | 82 | 1014.6 |
| 20260505065503 | 11 | 112 | 0.0 | 1.6 | 0.00 | 0.00 | 0.00 | 82 | 1014.6 |
| 20260505065003 | 11 | 112 | 0.0 | 1.6 | 0.00 | 0.00 | 0.00 | 82 | 1014.4 |
| 20260505064503 | 11 | 111 | 0.0 | 1.6 | 0.00 | 0.00 | 0.00 | 82 | 1014.4 |
| 20260505064024 | 11 | 110 | 0.0 | 1.6 | 0.00 | 0.00 | 0.00 | 81 | 1014.4 |
| 20260505063503 | 12 | 85 | 0.0 | 1.6 | 0.00 | 0.00 | 0.00 | 81 | 1014.4 |
| 20260505063003 | 12 | 82 | 0.0 | 1.6 | 0.00 | 0.00 | 0.00 | 81 | 1014.4 |
| 20260505062503 | 12 | 80 | 0.0 | 1.6 | 0.00 | 0.00 | 0.00 | 81 | 1014.4 |
| 20260505062003 | 12 | 0 | 0.0 | 0.0 | 0.00 | 0.00 | 0.00 | 80 | 1014.5 |
| 20260505061524 | 12 | 0 | 0.0 | 0.0 | 0.00 | 0.00 | 0.00 | 79 | 1014.4 |
| 20260505061003 | 12 | 69 | 0.0 | 1.6 | 0.00 | 0.00 | 0.00 | 79 | 1014.4 |
| 20260505060503 | 12 | 76 | 0.0 | 3.2 | 0.00 | 0.00 | 0.00 | 79 | 1014.3 |
| 20260505060003 | 12 | 83 | 0.0 | 3.2 | 0.00 | 0.00 | 0.00 | 78 | 1014.4 |
| 20260505055503 | 12 | 84 | 0.0 | 3.2 | 0.00 | 0.00 | 0.00 | 80 | 1014.5 |
| 20260505055024 | 12 | 84 | 0.0 | 3.2 | 0.00 | 0.00 | 0.00 | 79 | 1014.5 |
| 20260505054503 | 12 | 0 | 0.0 | 0.0 | 0.00 | 0.00 | 0.00 | 79 | 1014.4 |
| 20260505054024 | 13 | 0 | 0.0 | 0.0 | 0.00 | 0.00 | 0.00 | 78 | 1014.4 |
| 20260505053524 | 13 | 0 | 0.0 | 0.0 | 0.00 | 0.00 | 0.00 | 78 | 1014.5 |
| 20260505053003 | 13 | 0 | 0.0 | 0.0 | 0.00 | 0.00 | 0.00 | 76 | 1014.5 |
| 20260505052503 | 13 | 0 | 0.0 | 0.0 | 0.00 | 0.00 | 0.00 | 76 | 1014.6 |
| 20260505052003 | 13 | 0 | 0.0 | 0.0 | 0.00 | 0.00 | 0.00 | 76 | 1014.6 |
| 20260505051503 | 13 | 0 | 0.0 | 0.0 | 0.00 | 0.00 | 0.00 | 76 | 1014.6 |
| 20260505051003 | 13 | 0 | 0.0 | 0.0 | 0.00 | 0.00 | 0.00 | 76 | 1014.6 |
| 20260505050503 | 13 | 0 | 0.0 | 0.0 | 0.00 | 0.00 | 0.00 | 78 | 1014.7 |
| 20260505041503 | 14 | 0 | 0.0 | 0.0 | 0.00 | 0.00 | 0.00 | 76 | 1014.7 |
| 20260505041003 | 14 | 0 | 0.0 | 0.0 | 0.00 | 0.00 | 0.00 | 74 | 1014.8 |
| 20260505040503 | 14 | 0 | 0.0 | 0.0 | 0.00 | 0.00 | 0.00 | 73 | 1014.8 |
| 20260505040004 | 14 | 0 | 0.0 | 0.0 | 0.00 | 0.00 | 0.00 | 73 | 1014.9 |
| 20260505035503 | 14 | 0 | 0.0 | 0.0 | 0.00 | 0.00 | 0.00 | 73 | 1014.8 |
| 20260505035003 | 15 | 248 | 0.0 | 1.6 | 0.00 | 0.00 | 0.00 | 73 | 1014.8 |
| 20260505034503 | 15 | 249 | 0.0 | 1.6 | 0.00 | 0.00 | 0.00 | 72 | 1014.8 |
| 20260505034003 | 15 | 257 | 0.0 | 1.6 | 0.00 | 0.00 | 0.00 | 72 | 1014.7 |
| 20260505033524 | 15 | 0 | 0.0 | 0.0 | 0.00 | 0.00 | 0.00 | 71 | 1014.9 |
| 20260505033003 | 15 | 0 | 0.0 | 0.0 | 0.00 | 0.00 | 0.00 | 71 | 1014.9 |
| 20260505032503 | 15 | 0 | 0.0 | 0.0 | 0.00 | 0.00 | 0.00 | 71 | 1014.9 |
| 20260505032003 | 15 | 0 | 0.0 | 0.0 | 0.00 | 0.00 | 0.00 | 72 | 1014.9 |
| 20260505031503 | 15 | 0 | 0.0 | 0.0 | 0.00 | 0.00 | 0.00 | 73 | 1014.8 |
| 20260505031024 | 15 | 0 | 0.0 | 0.0 | 0.00 | 0.00 | 0.00 | 71 | 1014.8 |
| 20260505030503 | 15 | 0 | 0.0 | 0.0 | 0.00 | 0.00 | 0.00 | 68 | 1014.9 |
| 20260505030003 | 15 | 0 | 0.0 | 0.0 | 0.00 | 0.00 | 0.00 | 69 | 1014.9 |
| 20260505025524 | 15 | 0 | 0.0 | 0.0 | 0.00 | 0.00 | 0.00 | 69 | 1014.9 |
| 20260505025004 | 15 | 252 | 0.0 | 1.6 | 0.00 | 0.00 | 0.00 | 68 | 1014.8 |
| 20260505024503 | 15 | 235 | 0.0 | 1.6 | 0.00 | 0.00 | 0.00 | 68 | 1014.8 |
| 20260505024003 | 15 | 93 | 0.0 | 1.6 | 0.00 | 0.00 | 0.00 | 68 | 1014.7 |
| 20260505023503 | 15 | 93 | 0.0 | 1.6 | 0.00 | 0.00 | 0.00 | 68 | 1014.7 |
| 20260505023003 | 15 | 93 | 0.0 | 1.6 | 0.00 | 0.00 | 0.00 | 69 | 1014.7 |
| 20260505022524 | 15 | 0 | 0.0 | 0.0 | 0.00 | 0.00 | 0.00 | 69 | 1014.7 |
| 20260505022024 | 15 | 0 | 0.0 | 0.0 | 0.00 | 0.00 | 0.00 | 68 | 1014.6 |
| 20260505021503 | 15 | 93 | 0.0 | 1.6 | 0.00 | 0.00 | 0.00 | 69 | 1014.6 |
| 20260505021003 | 15 | 93 | 0.0 | 1.6 | 0.00 | 0.00 | 0.00 | 69 | 1014.6 |
| 20260505020503 | 15 | 0 | 0.0 | 0.0 | 0.00 | 0.00 | 0.00 | 68 | 1014.6 |
| 20260505020004 | 15 | 0 | 0.0 | 0.0 | 0.00 | 0.00 | 0.00 | 67 | 1014.5 |
| 20260505015503 | 15 | 0 | 0.0 | 0.0 | 0.00 | 0.00 | 0.00 | 66 | 1014.5 |
| 20260505015003 | 15 | 0 | 0.0 | 0.0 | 0.00 | 0.00 | 0.00 | 65 | 1014.4 |
| 20260505014503 | 16 | 0 | 0.0 | 0.0 | 0.00 | 0.00 | 0.00 | 64 | 1014.3 |
| 20260505014003 | 16 | 0 | 0.0 | 0.0 | 0.00 | 0.00 | 0.00 | 64 | 1014.3 |
| 20260505013503 | 16 | 0 | 0.0 | 0.0 | 0.00 | 0.00 | 0.00 | 63 | 1014.3 |
| 20260505013024 | 16 | 0 | 0.0 | 0.0 | 0.00 | 0.00 | 0.00 | 62 | 1014.2 |
| 20260505012503 | 16 | 0 | 0.0 | 0.0 | 0.00 | 0.00 | 0.00 | 61 | 1014.1 |
| 20260505012003 | 16 | 0 | 0.0 | 0.0 | 0.00 | 0.00 | 0.00 | 59 | 1014.1 |
| 20260505011503 | 16 | 0 | 0.0 | 0.0 | 0.00 | 0.00 | 0.00 | 59 | 1014.1 |
| 20260505011003 | 17 | 0 | 0.0 | 0.0 | 0.00 | 0.00 | 0.00 | 59 | 1014.1 |
| 20260505010503 | 17 | 0 | 0.0 | 0.0 | 0.00 | 0.00 | 0.00 | 58 | 1014.1 |
| 20260505010004 | 17 | 0 | 0.0 | 0.0 | 0.00 | 0.00 | 0.00 | 57 | 1014.0 |
| 20260505005503 | 17 | 0 | 0.0 | 0.0 | 0.00 | 0.00 | 0.00 | 56 | 1014.0 |
| 20260505005004 | 18 | 0 | 0.0 | 0.0 | 0.00 | 0.00 | 0.00 | 54 | 1013.8 |
| 20260505004503 | 18 | 0 | 0.0 | 0.0 | 0.00 | 0.00 | 0.00 | 54 | 1013.8 |
| 20260505004003 | 18 | 93 | 0.0 | 1.6 | 0.00 | 0.00 | 0.00 | 55 | 1013.8 |
| 20260505003503 | 18 | 93 | 0.0 | 1.6 | 0.00 | 0.00 | 0.00 | 53 | 1013.8 |
| 20260505003003 | 18 | 0 | 0.0 | 0.0 | 0.00 | 0.00 | 0.00 | 51 | 1013.7 |
| 20260505002503 | 19 | 0 | 0.0 | 0.0 | 0.00 | 0.00 | 0.00 | 52 | 1013.7 |
| 20260505002003 | 20 | 0 | 0.0 | 0.0 | 0.00 | 0.00 | 0.00 | 50 | 1013.7 |
| 20260505001503 | 20 | 0 | 0.0 | 0.0 | 0.00 | 0.00 | 0.00 | 49 | 1013.7 |
| 20260505001003 | 20 | 0 | 0.0 | 0.0 | 0.00 | 0.00 | 0.00 | 48 | 1013.7 |
| 20260505000503 | 20 | 0 | 0.0 | 0.0 | 0.00 | 0.00 | 0.00 | 47 | 1013.7 |
| 20260505000003 | 21 | 0 | 0.0 | 0.0 | 0.00 | 0.00 | 0.00 | 48 | 1013.6 |
| 20260504235503 | 21 | 94 | 0.0 | 3.2 | 0.00 | 0.00 | 0.00 | 46 | 1013.6 |
| 20260504235003 | 21 | 94 | 0.0 | 3.2 | 0.00 | 0.00 | 0.00 | 46 | 1013.5 |
| 20260504234503 | 21 | 97 | 0.0 | 3.2 | 0.00 | 0.00 | 0.00 | 45 | 1013.4 |
| 20260504234003 | 21 | 106 | 0.0 | 3.2 | 0.00 | 0.00 | 0.00 | 45 | 1013.4 |
| 20260504233503 | 22 | 120 | 0.0 | 3.2 | 0.00 | 0.00 | 0.00 | 45 | 1013.4 |
| 20260504233003 | 22 | 122 | 0.0 | 1.6 | 0.00 | 0.00 | 0.00 | 43 | 1013.4 |
| 20260504232503 | 22 | 122 | 0.0 | 1.6 | 0.00 | 0.00 | 0.00 | 43 | 1013.3 |
| 20260504232003 | 22 | 88 | 0.0 | 3.2 | 0.00 | 0.00 | 0.00 | 42 | 1013.3 |
| 20260504231503 | 22 | 72 | 1.6 | 6.4 | 0.00 | 0.00 | 0.00 | 41 | 1013.3 |
| 20260504231003 | 22 | 75 | 1.6 | 6.4 | 0.00 | 0.00 | 0.00 | 41 | 1013.2 |
| 20260504230503 | 23 | 65 | 1.6 | 8.0 | 0.00 | 0.00 | 0.00 | 42 | 1013.3 |
| 20260504230003 | 23 | 57 | 1.6 | 8.0 | 0.00 | 0.00 | 0.00 | 40 | 1013.3 |
| 20260504225503 | 23 | 54 | 1.6 | 6.4 | 0.00 | 0.00 | 0.00 | 39 | 1013.2 |
| 20260504225003 | 23 | 51 | 1.6 | 4.8 | 0.00 | 0.00 | 0.00 | 38 | 1013.2 |
| 20260504224524 | 23 | 66 | 1.6 | 9.7 | 0.00 | 0.00 | 0.00 | 38 | 1013.2 |
| 20260504224003 | 23 | 40 | 1.6 | 11.3 | 0.00 | 0.00 | 0.00 | 36 | 1013.2 |
| 20260504223503 | 23 | 26 | 3.2 | 11.3 | 0.00 | 0.00 | 0.00 | 38 | 1013.3 |
| 20260504223003 | 23 | 31 | 3.2 | 9.7 | 0.00 | 0.00 | 0.00 | 36 | 1013.3 |
| 20260504222503 | 24 | 39 | 3.2 | 9.7 | 0.00 | 0.00 | 0.00 | 36 | 1013.3 |
| 20260504222003 | 24 | 52 | 1.6 | 6.4 | 0.00 | 0.00 | 0.00 | 37 | 1013.3 |
| 20260504221503 | 24 | 28 | 3.2 | 6.4 | 0.00 | 0.00 | 0.00 | 36 | 1013.3 |
| 20260504221024 | 24 | 49 | 3.2 | 8.0 | 0.00 | 0.00 | 0.00 | 36 | 1013.3 |
| 20260504220503 | 24 | 59 | 3.2 | 8.0 | 0.00 | 0.00 | 0.00 | 35 | 1013.4 |
| 20260504220003 | 24 | 79 | 1.6 | 4.8 | 0.00 | 0.00 | 0.00 | 36 | 1013.3 |
| 20260504215503 | 24 | 58 | 3.2 | 12.9 | 0.00 | 0.00 | 0.00 | 34 | 1013.3 |
| 20260504215003 | 24 | 55 | 3.2 | 12.9 | 0.00 | 0.00 | 0.00 | 35 | 1013.2 |
| 20260504214503 | 24 | 66 | 1.6 | 6.4 | 0.00 | 0.00 | 0.00 | 33 | 1013.2 |
| 20260504214024 | 24 | 48 | 1.6 | 9.7 | 0.00 | 0.00 | 0.00 | 34 | 1013.2 |
| 20260504213503 | 24 | 45 | 1.6 | 9.7 | 0.00 | 0.00 | 0.00 | 34 | 1013.3 |
| 20260504213003 | 24 | 60 | 1.6 | 6.4 | 0.00 | 0.00 | 0.00 | 33 | 1013.2 |
| 20260504212503 | 24 | 77 | 1.6 | 6.4 | 0.00 | 0.00 | 0.00 | 36 | 1013.2 |
| 20260504212003 | 24 | 80 | 1.6 | 8.0 | 0.00 | 0.00 | 0.00 | 34 | 1013.2 |
| 20260504211503 | 25 | 30 | 1.6 | 8.0 | 0.00 | 0.00 | 0.00 | 32 | 1013.2 |
| 20260504211003 | 25 | 54 | 1.6 | 9.7 | 0.00 | 0.00 | 0.00 | 32 | 1013.2 |
| 20260504210503 | 25 | 37 | 3.2 | 9.7 | 0.00 | 0.00 | 0.00 | 35 | 1013.2 |
| 20260504210004 | 25 | 10 | 3.2 | 9.7 | 0.00 | 0.00 | 0.00 | 33 | 1013.3 |
| 20260504205503 | 25 | 65 | 1.6 | 6.4 | 0.00 | 0.00 | 0.00 | 31 | 1013.3 |
| 20260504205003 | 25 | 82 | 1.6 | 11.3 | 0.00 | 0.00 | 0.00 | 32 | 1013.4 |
| 20260504204503 | 25 | 35 | 3.2 | 12.9 | 0.00 | 0.00 | 0.00 | 31 | 1013.4 |
| 20260504204003 | 25 | 28 | 3.2 | 12.9 | 0.00 | 0.00 | 0.00 | 32 | 1013.5 |
| 20260504203503 | 25 | 51 | 1.6 | 4.8 | 0.00 | 0.00 | 0.00 | 33 | 1013.5 |
| 20260504203003 | 25 | 59 | 1.6 | 4.8 | 0.00 | 0.00 | 0.00 | 32 | 1013.5 |
| 20260504202503 | 25 | 66 | 1.6 | 4.8 | 0.00 | 0.00 | 0.00 | 31 | 1013.5 |
| 20260504202003 | 25 | 63 | 1.6 | 8.0 | 0.00 | 0.00 | 0.00 | 32 | 1013.5 |
| 20260504201524 | 25 | 70 | 1.6 | 8.0 | 0.00 | 0.00 | 0.00 | 32 | 1013.6 |
| 20260504201003 | 25 | 81 | 1.6 | 11.3 | 0.00 | 0.00 | 0.00 | 31 | 1013.7 |
| 20260504200503 | 25 | 84 | 3.2 | 11.3 | 0.00 | 0.00 | 0.00 | 32 | 1013.7 |